createdAt,value
2018-06-11T00:02:07.439Z,23.10
2018-06-11T00:07:03.057Z,23.00
2018-06-11T00:09:30.907Z,23.00
2018-06-11T00:11:58.849Z,22.90
2018-06-11T00:14:26.761Z,23.00
2018-06-11T00:16:54.617Z,22.90
2018-06-11T00:19:22.455Z,23.00
2018-06-11T00:21:50.413Z,22.90
2018-06-11T00:24:18.485Z,22.90
2018-06-11T00:26:46.724Z,22.90
2018-06-11T00:29:14.604Z,23.00
2018-06-11T00:31:42.504Z,23.00
2018-06-11T00:34:10.284Z,22.90
2018-06-11T00:36:38.058Z,22.90
2018-06-11T00:39:07.716Z,23.00
2018-06-11T00:41:35.466Z,22.80
2018-06-11T00:44:03.236Z,22.80
2018-06-11T00:46:31.000Z,22.80
2018-06-11T00:48:58.849Z,22.70
2018-06-11T00:51:26.677Z,22.70
2018-06-11T00:53:54.437Z,22.80
2018-06-11T00:56:22.254Z,22.80
2018-06-11T01:01:18.050Z,22.50
2018-06-11T01:03:47.096Z,22.70
2018-06-11T01:06:15.178Z,22.70
2018-06-11T01:08:43.037Z,22.50
2018-06-11T01:11:11.008Z,22.50
2018-06-11T01:13:38.829Z,22.60
2018-06-11T01:16:06.589Z,22.70
2018-06-11T01:18:34.402Z,22.70
2018-06-11T01:21:02.384Z,22.50
2018-06-11T01:23:30.174Z,22.40
2018-06-11T01:25:58.401Z,22.40
2018-06-11T01:28:26.330Z,22.30
2018-06-11T01:30:54.302Z,22.30
2018-06-11T01:33:22.165Z,22.40
2018-06-11T01:35:49.923Z,22.40
2018-06-11T01:38:17.929Z,22.40
2018-06-11T01:43:15.703Z,22.20
2018-06-11T01:45:43.542Z,22.00
2018-06-11T01:48:11.352Z,21.90
2018-06-11T01:50:39.177Z,21.80
2018-06-11T01:53:07.012Z,21.90
2018-06-11T01:55:34.865Z,21.90
2018-06-11T01:58:02.722Z,21.80
2018-06-11T02:00:30.605Z,21.80
2018-06-11T02:02:58.386Z,21.90
2018-06-11T02:05:26.237Z,21.90
2018-06-11T02:07:54.428Z,22.00
2018-06-11T02:10:22.785Z,22.10
2018-06-11T02:12:50.783Z,22.20
2018-06-11T02:15:18.665Z,22.00
2018-06-11T02:17:46.633Z,21.90
2018-06-11T02:20:14.667Z,21.90
2018-06-11T02:22:42.495Z,22.00
2018-06-11T02:25:10.382Z,21.80
2018-06-11T02:27:38.173Z,21.60
2018-06-11T02:30:06.225Z,21.70
2018-06-11T02:32:34.076Z,21.90
2018-06-11T02:35:01.958Z,22.00
2018-06-11T02:37:29.804Z,21.90
2018-06-11T02:39:57.876Z,21.80
2018-06-11T02:44:55.381Z,21.70
2018-06-11T02:47:23.170Z,21.80
2018-06-11T02:49:51.144Z,21.80
2018-06-11T02:52:18.995Z,21.80
2018-06-11T02:54:46.794Z,21.60
2018-06-11T02:57:14.597Z,21.70
2018-06-11T02:59:42.450Z,21.60
2018-06-11T03:02:10.259Z,21.50
2018-06-11T03:04:38.233Z,21.50
2018-06-11T03:07:06.101Z,21.50
2018-06-11T03:09:33.950Z,21.60
2018-06-11T03:12:01.845Z,21.50
2018-06-11T03:14:29.665Z,21.40
2018-06-11T03:16:57.481Z,21.40
2018-06-11T03:19:25.233Z,21.40
2018-06-11T03:21:53.036Z,21.50
2018-06-11T03:24:20.825Z,21.40
2018-06-11T03:26:48.691Z,21.40
2018-06-11T03:29:16.709Z,21.50
2018-06-11T03:31:44.713Z,21.30
2018-06-11T03:34:12.715Z,21.30
2018-06-11T03:36:40.589Z,21.50
2018-06-11T03:39:09.076Z,21.40
2018-06-11T03:41:37.145Z,21.40
2018-06-11T03:44:04.965Z,21.50
2018-06-11T03:49:00.974Z,21.30
2018-06-11T03:51:28.794Z,21.40
2018-06-11T03:53:56.768Z,21.50
2018-06-11T03:56:24.597Z,21.50
2018-06-11T03:58:52.505Z,21.60
2018-06-11T04:01:20.643Z,21.50
2018-06-11T04:03:48.478Z,21.50
2018-06-11T04:06:16.318Z,21.60
2018-06-11T04:08:44.197Z,21.40
2018-06-11T04:11:12.314Z,21.50
2018-06-11T04:13:40.206Z,21.50
2018-06-11T04:16:08.087Z,21.30
2018-06-11T04:18:35.962Z,21.40
2018-06-11T04:21:04.037Z,21.30
2018-06-11T04:23:31.917Z,21.40
2018-06-11T04:25:59.858Z,21.50
2018-06-11T04:28:27.762Z,21.40
2018-06-11T04:30:55.540Z,21.40
2018-06-11T04:33:23.282Z,21.60
2018-06-11T04:35:51.065Z,21.60
2018-06-11T04:38:18.836Z,21.50
2018-06-11T04:40:51.825Z,21.70
2018-06-11T04:43:19.607Z,21.70
2018-06-11T04:48:15.005Z,21.70
2018-06-11T04:50:42.841Z,21.80
2018-06-11T04:53:10.645Z,21.80
2018-06-11T04:55:38.422Z,22.00
2018-06-11T04:58:06.281Z,22.20
2018-06-11T05:00:34.113Z,22.20
2018-06-11T05:03:02.106Z,22.10
2018-06-11T05:05:30.156Z,22.20
2018-06-11T05:07:58.082Z,22.30
2018-06-11T05:10:25.950Z,22.40
2018-06-11T05:15:21.418Z,22.60
2018-06-11T05:17:49.221Z,22.80
2018-06-11T05:20:17.293Z,22.90
2018-06-11T05:25:12.720Z,22.90
2018-06-11T05:27:40.489Z,22.80
2018-06-11T05:30:08.361Z,22.90
2018-06-11T05:32:36.510Z,22.90
2018-06-11T05:35:04.365Z,23.00
2018-06-11T05:37:33.189Z,23.10
2018-06-11T05:40:01.486Z,23.10
2018-06-11T05:42:29.725Z,23.00
2018-06-11T05:44:57.624Z,23.00
2018-06-11T05:47:25.445Z,23.00
2018-06-11T05:49:53.563Z,23.00
2018-06-11T05:52:21.393Z,23.00
2018-06-11T05:54:49.201Z,23.10
2018-06-11T05:57:16.981Z,23.10
2018-06-11T05:59:44.889Z,23.30
2018-06-11T06:02:12.729Z,23.40
2018-06-11T06:04:40.512Z,23.80
2018-06-11T06:07:08.281Z,24.10
2018-06-11T06:09:36.270Z,24.20
2018-06-11T06:12:04.045Z,24.20
2018-06-11T06:16:59.878Z,24.60
2018-06-11T06:19:28.194Z,24.90
2018-06-11T06:21:55.994Z,25.10
2018-06-11T06:24:23.765Z,25.80
2018-06-11T06:26:51.535Z,25.90
2018-06-11T06:31:47.238Z,25.90
2018-06-11T06:34:15.130Z,26.00
2018-06-11T06:36:43.145Z,26.00
2018-06-11T06:39:10.982Z,26.50
2018-06-11T06:41:38.850Z,26.60
2018-06-11T06:44:06.616Z,26.80
2018-06-11T06:49:02.425Z,27.40
2018-06-11T06:51:30.734Z,27.40
2018-06-11T06:53:58.600Z,27.60
2018-06-11T06:56:26.481Z,27.80
2018-06-11T06:58:54.277Z,28.10
2018-06-11T07:01:22.084Z,28.10
2018-06-11T07:06:19.277Z,28.30
2018-06-11T07:08:47.155Z,28.30
2018-06-11T07:11:15.019Z,28.40
2018-06-11T07:13:42.853Z,28.50
2018-06-11T07:16:10.690Z,28.90
2018-06-11T07:18:38.720Z,29.10
2018-06-11T07:21:06.765Z,29.20
2018-06-11T07:23:34.577Z,29.00
2018-06-11T07:26:02.495Z,29.00
2018-06-11T07:28:30.557Z,29.00
2018-06-11T07:30:58.702Z,29.00
2018-06-11T07:33:26.480Z,28.90
2018-06-11T07:35:54.302Z,29.00
2018-06-11T07:38:22.121Z,28.90
2018-06-11T07:40:50.081Z,28.90
2018-06-11T07:43:17.926Z,29.10
2018-06-11T07:45:45.761Z,29.30
2018-06-11T07:48:13.564Z,29.60
2018-06-11T07:50:41.393Z,30.00
2018-06-11T07:53:09.159Z,30.30
2018-06-11T07:55:36.933Z,30.80
2018-06-11T07:58:04.758Z,30.70
2018-06-11T08:00:32.734Z,30.80
2018-06-11T08:03:00.987Z,31.10
2018-06-11T08:05:28.994Z,31.40
2018-06-11T08:07:56.834Z,31.50
2018-06-11T08:10:24.605Z,31.70
2018-06-11T08:12:52.404Z,32.10
2018-06-11T08:15:20.789Z,32.70
2018-06-11T08:17:48.627Z,32.70
2018-06-11T08:22:44.041Z,32.80
2018-06-11T08:25:11.834Z,32.70
2018-06-11T08:27:39.626Z,32.70
2018-06-11T08:30:07.413Z,32.80
2018-06-11T08:32:35.222Z,32.90
2018-06-11T08:35:03.075Z,33.00
2018-06-11T08:37:30.863Z,33.10
2018-06-11T08:39:59.390Z,33.30
2018-06-11T08:42:27.226Z,33.60
2018-06-11T08:44:55.021Z,34.40
2018-06-11T08:47:22.810Z,35.10
2018-06-11T08:49:50.799Z,34.80
2018-06-11T08:54:46.241Z,34.50
2018-06-11T08:57:14.102Z,34.60
2018-06-11T08:59:42.231Z,34.40
2018-06-11T09:02:10.049Z,34.50
2018-06-11T09:04:37.837Z,34.40
2018-06-11T09:07:05.738Z,34.30
2018-06-11T09:09:34.186Z,34.10
2018-06-11T09:12:02.000Z,33.90
2018-06-11T09:14:29.862Z,33.60
2018-06-11T09:16:57.758Z,33.30
2018-06-11T09:19:25.799Z,33.20
2018-06-11T09:21:53.579Z,33.10
2018-06-11T09:26:49.010Z,32.90
2018-06-11T09:29:16.845Z,32.90
2018-06-11T09:31:44.590Z,33.00
2018-06-11T09:34:12.378Z,33.00
2018-06-11T09:36:40.177Z,33.00
2018-06-11T09:39:08.597Z,33.10
2018-06-11T09:41:36.473Z,33.20
2018-06-11T09:44:04.461Z,33.50
2018-06-11T09:46:32.463Z,33.70
2018-06-11T09:49:00.467Z,33.90
2018-06-11T09:51:28.269Z,34.00
2018-06-11T09:53:56.082Z,33.90
2018-06-11T09:56:23.861Z,33.80
2018-06-11T09:58:51.650Z,33.80
2018-06-11T10:01:19.429Z,34.00
2018-06-11T10:03:47.202Z,34.10
2018-06-11T10:06:15.020Z,34.10
2018-06-11T10:08:42.773Z,34.20
2018-06-11T10:11:10.538Z,34.20
2018-06-11T10:13:38.385Z,34.00
2018-06-11T10:16:06.161Z,33.90
2018-06-11T10:18:34.073Z,33.80
2018-06-11T10:21:02.041Z,33.60
2018-06-11T10:23:29.837Z,33.50
2018-06-11T10:25:57.639Z,33.30
2018-06-11T10:28:25.415Z,33.00
2018-06-11T10:30:53.201Z,32.80
2018-06-11T10:33:20.981Z,32.70
2018-06-11T10:35:48.765Z,32.50
2018-06-11T10:38:16.541Z,32.40
2018-06-11T10:40:44.326Z,32.20
2018-06-11T10:43:12.105Z,32.10
2018-06-11T10:45:39.852Z,32.00
2018-06-11T10:48:07.640Z,31.90
2018-06-11T10:50:35.564Z,31.70
2018-06-11T10:53:03.529Z,31.70
2018-06-11T10:55:31.641Z,31.70
2018-06-11T10:57:59.502Z,31.70
2018-06-11T11:00:27.498Z,31.80
2018-06-11T11:02:55.245Z,31.80
2018-06-11T11:05:23.085Z,31.80
2018-06-11T11:07:50.857Z,31.70
2018-06-11T11:10:18.889Z,31.70
2018-06-11T11:12:46.644Z,31.80
2018-06-11T11:17:42.058Z,31.70
2018-06-11T11:20:09.959Z,31.70
2018-06-11T11:22:37.787Z,31.60
2018-06-11T11:25:05.610Z,31.50
2018-06-11T11:27:33.410Z,31.60
2018-06-11T11:30:01.451Z,31.60
2018-06-11T11:32:29.215Z,31.60
2018-06-11T11:34:57.005Z,31.60
2018-06-11T11:37:24.772Z,31.50
2018-06-11T11:39:52.645Z,31.50
2018-06-11T11:42:20.437Z,31.40
2018-06-11T11:44:48.202Z,31.30
2018-06-11T11:47:15.996Z,31.20
2018-06-11T11:49:44.017Z,31.00
2018-06-11T11:52:11.776Z,30.80
2018-06-11T11:54:39.557Z,30.70
2018-06-11T11:57:07.348Z,30.60
2018-06-11T12:02:02.890Z,30.30
2018-06-11T12:04:30.704Z,30.20
2018-06-11T12:06:58.461Z,30.10
2018-06-11T12:09:26.212Z,30.00
2018-06-11T12:11:53.984Z,30.00
2018-06-11T12:14:21.761Z,29.90
2018-06-11T12:16:49.516Z,29.90
2018-06-11T12:19:17.309Z,29.90
2018-06-11T12:21:45.927Z,29.90
2018-06-11T12:24:13.690Z,30.00
2018-06-11T12:26:41.497Z,30.00
2018-06-11T12:29:09.241Z,30.10
2018-06-11T12:31:37.005Z,30.10
2018-06-11T12:34:04.828Z,30.30
2018-06-11T12:36:32.571Z,30.30
2018-06-11T12:39:00.353Z,30.50
2018-06-11T12:41:28.103Z,30.60
2018-06-11T12:43:55.863Z,30.80
2018-06-11T12:46:23.649Z,30.90
2018-06-11T12:48:51.409Z,31.10
2018-06-11T12:51:19.363Z,31.30
2018-06-11T12:53:47.805Z,31.40
2018-06-11T12:56:15.637Z,31.30
2018-06-11T12:58:43.384Z,31.20
2018-06-11T13:01:11.360Z,31.20
2018-06-11T13:06:06.821Z,30.90
2018-06-11T13:08:34.721Z,30.90
2018-06-11T13:11:03.130Z,30.80
2018-06-11T13:13:30.900Z,30.80
2018-06-11T13:15:58.710Z,30.80
2018-06-11T13:18:26.485Z,30.80
2018-06-11T13:20:54.365Z,30.80
2018-06-11T13:23:22.169Z,30.80
2018-06-11T13:28:17.586Z,31.00
2018-06-11T13:30:45.449Z,31.00
2018-06-11T13:35:40.899Z,31.10
2018-06-11T13:38:08.649Z,31.00
2018-06-11T13:40:36.584Z,31.10
2018-06-11T13:43:04.497Z,31.00
2018-06-11T13:45:32.604Z,31.00
2018-06-11T13:48:00.377Z,30.90
2018-06-11T13:50:28.498Z,30.90
2018-06-11T13:55:23.902Z,31.00
2018-06-11T13:57:51.654Z,30.90
2018-06-11T14:00:19.436Z,30.90
2018-06-11T14:02:47.220Z,30.80
2018-06-11T14:05:14.984Z,30.70
2018-06-11T14:07:42.719Z,30.60
2018-06-11T14:10:10.491Z,30.30
2018-06-11T14:12:38.282Z,30.00
2018-06-11T14:15:06.145Z,29.80
2018-06-11T14:20:02.198Z,29.40
2018-06-11T14:22:29.921Z,29.30
2018-06-11T14:24:57.666Z,29.00
2018-06-11T14:27:25.482Z,28.80
2018-06-11T14:29:53.223Z,28.60
2018-06-11T14:32:20.976Z,28.40
2018-06-11T14:34:48.773Z,28.20
2018-06-11T14:37:16.517Z,28.20
2018-06-11T14:39:44.338Z,28.20
2018-06-11T14:42:12.125Z,28.30
2018-06-11T14:44:39.908Z,28.40
2018-06-11T14:47:07.686Z,28.50
2018-06-11T14:52:03.648Z,28.60
2018-06-11T14:54:31.513Z,28.70
2018-06-11T14:56:59.901Z,28.90
2018-06-11T14:59:27.709Z,28.90
2018-06-11T15:01:55.521Z,28.90
2018-06-11T15:04:23.273Z,28.90
2018-06-11T15:09:18.808Z,29.00
2018-06-11T15:11:46.573Z,29.00
2018-06-11T15:14:15.501Z,29.10
2018-06-11T15:16:43.989Z,29.10
2018-06-11T15:19:11.780Z,29.20
2018-06-11T15:21:39.546Z,29.30
2018-06-11T15:24:07.332Z,29.30
2018-06-11T15:26:38.324Z,29.30
2018-06-11T15:29:06.529Z,29.40
2018-06-11T15:31:34.514Z,29.40
2018-06-11T15:36:30.094Z,29.30
2018-06-11T15:38:57.861Z,29.10
2018-06-11T15:41:25.625Z,29.10
2018-06-11T15:43:53.413Z,29.20
2018-06-11T15:46:21.217Z,29.20
2018-06-11T15:48:48.973Z,29.00
2018-06-11T15:51:16.789Z,28.80
2018-06-11T15:53:44.548Z,28.50
2018-06-11T15:56:12.854Z,28.40
2018-06-11T15:58:40.687Z,28.30
2018-06-11T16:01:08.461Z,28.00
2018-06-11T16:03:36.301Z,27.80
2018-06-11T16:06:05.220Z,27.60
2018-06-11T16:08:33.121Z,27.50
2018-06-11T16:13:28.533Z,27.50
2018-06-11T16:15:56.297Z,27.40
2018-06-11T16:18:24.078Z,27.30
2018-06-11T16:20:51.941Z,27.10
2018-06-11T16:23:21.920Z,27.20
2018-06-11T16:25:49.765Z,27.10
2018-06-11T16:28:19.762Z,27.00
2018-06-11T16:30:47.593Z,26.90
2018-06-11T16:33:15.501Z,26.80
2018-06-11T16:35:43.396Z,26.80
2018-06-11T16:38:11.177Z,26.60
2018-06-11T16:40:38.969Z,26.50
2018-06-11T16:43:06.783Z,26.60
2018-06-11T16:45:34.765Z,26.80
2018-06-11T16:48:02.647Z,26.70
2018-06-11T16:50:30.653Z,26.60
2018-06-11T16:52:58.461Z,26.60
2018-06-11T16:55:26.234Z,26.60
2018-06-11T16:57:54.010Z,26.50
2018-06-11T17:00:21.991Z,26.30
2018-06-11T17:02:49.765Z,26.20
2018-06-11T17:05:17.518Z,26.30
2018-06-11T17:07:45.285Z,26.20
2018-06-11T17:10:13.378Z,26.10
2018-06-11T17:15:08.864Z,25.90
2018-06-11T17:17:36.938Z,25.80
2018-06-11T17:20:04.910Z,25.60
2018-06-11T17:22:32.752Z,25.50
2018-06-11T17:25:00.513Z,25.40
2018-06-11T17:27:28.335Z,25.40
2018-06-11T17:29:56.090Z,25.30
2018-06-11T17:32:23.869Z,25.40
2018-06-11T17:34:51.648Z,25.40
2018-06-11T17:39:46.995Z,25.30
2018-06-11T17:42:14.834Z,25.30
2018-06-11T17:44:42.611Z,25.30
2018-06-11T17:47:10.429Z,25.40
2018-06-11T17:49:38.242Z,25.40
2018-06-11T17:52:06.266Z,25.40
2018-06-11T17:54:34.233Z,25.40
2018-06-11T17:57:02.041Z,25.40
2018-06-11T17:59:29.789Z,25.40
2018-06-11T18:01:57.635Z,25.40
2018-06-11T18:04:25.472Z,25.40
2018-06-11T18:06:53.246Z,25.40
2018-06-11T18:09:21.286Z,25.40
2018-06-11T18:11:49.045Z,25.50
2018-06-11T18:14:17.005Z,25.50
2018-06-11T18:16:44.938Z,25.40
2018-06-11T18:19:12.785Z,25.40
2018-06-11T18:21:40.645Z,25.30
2018-06-11T18:24:08.474Z,25.30
2018-06-11T18:26:36.286Z,25.30
2018-06-11T18:29:04.093Z,25.30
2018-06-11T18:31:32.050Z,25.20
2018-06-11T18:34:00.517Z,25.20
2018-06-11T18:36:28.311Z,25.20
2018-06-11T18:38:56.472Z,25.10
2018-06-11T18:41:24.579Z,25.10
2018-06-11T18:43:52.350Z,25.00
2018-06-11T18:46:20.169Z,25.00
2018-06-11T18:48:47.983Z,25.00
2018-06-11T18:51:16.310Z,24.90
2018-06-11T18:53:44.780Z,24.90
2018-06-11T18:56:13.194Z,24.90
2018-06-11T18:58:41.205Z,24.80
2018-06-11T19:01:09.101Z,24.80
2018-06-11T19:03:36.980Z,24.70
2018-06-11T19:08:32.914Z,24.60
2018-06-11T19:11:00.670Z,24.60
2018-06-11T19:13:28.471Z,24.60
2018-06-11T19:15:56.362Z,24.50
2018-06-11T19:18:24.169Z,24.50
2018-06-11T19:20:51.994Z,24.40
2018-06-11T19:23:19.758Z,24.40
2018-06-11T19:25:47.511Z,24.30
2018-06-11T19:28:15.298Z,24.20
2018-06-11T19:30:43.109Z,24.20
2018-06-11T19:33:10.938Z,24.10
2018-06-11T19:35:38.689Z,24.10
2018-06-11T19:38:06.523Z,24.10
2018-06-11T19:40:34.417Z,24.00
2018-06-11T19:43:02.422Z,24.00
2018-06-11T19:45:31.182Z,24.00
2018-06-11T19:47:59.343Z,23.90
2018-06-11T19:50:28.430Z,23.90
2018-06-11T19:52:56.533Z,23.90
2018-06-11T19:55:24.725Z,23.90
2018-06-11T20:00:22.104Z,23.80
2018-06-11T20:02:50.235Z,23.80
2018-06-11T20:05:19.047Z,23.80
2018-06-11T20:07:47.054Z,23.70
2018-06-11T20:10:15.622Z,23.70
2018-06-11T20:12:43.869Z,23.70
2018-06-11T20:15:11.868Z,23.80
2018-06-11T20:17:40.004Z,23.80
2018-06-11T20:20:08.546Z,23.70
2018-06-11T20:22:37.634Z,23.60
2018-06-11T20:25:06.409Z,23.60
2018-06-11T20:27:34.793Z,23.60
2018-06-11T20:30:02.857Z,23.50
2018-06-11T20:32:30.997Z,23.60
2018-06-11T20:34:59.024Z,23.50
2018-06-11T20:39:55.124Z,23.50
2018-06-11T20:42:23.169Z,23.50
2018-06-11T20:44:51.264Z,23.40
2018-06-11T20:47:19.582Z,23.40
2018-06-11T20:49:48.073Z,23.50
2018-06-11T20:52:16.213Z,23.30
2018-06-11T20:54:44.157Z,23.20
2018-06-11T20:57:12.085Z,23.20
2018-06-11T20:59:40.247Z,23.20
2018-06-11T21:02:08.219Z,23.10
2018-06-11T21:04:37.028Z,23.10
2018-06-11T21:09:33.320Z,23.00
2018-06-11T21:12:01.182Z,22.70
2018-06-11T21:14:29.336Z,22.80
2018-06-11T21:16:57.169Z,22.80
2018-06-11T21:19:25.312Z,22.70
2018-06-11T21:21:53.431Z,22.70
2018-06-11T21:24:21.309Z,22.70
2018-06-11T21:26:49.314Z,22.60
2018-06-11T21:29:17.175Z,22.50
2018-06-11T21:31:45.101Z,22.50
2018-06-11T21:34:12.984Z,22.40
2018-06-11T21:36:41.533Z,22.20
2018-06-11T21:39:09.396Z,22.30
2018-06-11T21:41:37.444Z,22.20
2018-06-11T21:44:05.394Z,22.10
2018-06-11T21:46:33.484Z,22.10
2018-06-11T21:49:01.546Z,22.10
2018-06-11T21:51:29.711Z,22.00
2018-06-11T21:53:57.663Z,22.00
2018-06-11T21:56:25.702Z,21.90
2018-06-11T21:58:53.667Z,21.80
2018-06-11T22:01:21.625Z,21.80
2018-06-11T22:03:49.889Z,21.70
2018-06-11T22:06:17.618Z,21.70
2018-06-11T22:08:45.465Z,21.70
2018-06-11T22:11:13.262Z,21.60
2018-06-11T22:13:41.098Z,21.60
2018-06-11T22:16:09.034Z,21.50
2018-06-11T22:21:04.966Z,21.60
2018-06-11T22:23:32.767Z,21.60
2018-06-11T22:26:00.601Z,21.70
2018-06-11T22:28:28.403Z,21.60
2018-06-11T22:30:56.234Z,21.50
2018-06-11T22:35:51.684Z,21.30
2018-06-11T22:38:19.943Z,21.30
2018-06-11T22:40:48.103Z,21.20
2018-06-11T22:43:16.087Z,21.20
2018-06-11T22:45:43.881Z,21.00
2018-06-11T22:48:11.721Z,21.10
2018-06-11T22:50:39.567Z,21.10
2018-06-11T22:55:35.261Z,21.20
2018-06-11T22:58:03.222Z,21.10
2018-06-11T23:00:34.097Z,21.10
2018-06-11T23:03:02.962Z,21.00
2018-06-11T23:05:30.753Z,21.20
2018-06-11T23:07:58.573Z,21.10
2018-06-11T23:10:26.813Z,21.00
2018-06-11T23:12:54.732Z,21.00
2018-06-11T23:15:22.592Z,21.00
2018-06-11T23:17:50.418Z,21.00
2018-06-11T23:20:18.316Z,20.90
2018-06-11T23:22:46.245Z,20.90
2018-06-11T23:25:14.118Z,20.80
2018-06-11T23:30:09.873Z,20.80
2018-06-11T23:32:38.280Z,20.80
2018-06-11T23:35:06.321Z,20.80
2018-06-11T23:37:34.240Z,20.70
2018-06-11T23:40:02.291Z,20.70
2018-06-11T23:42:30.092Z,20.70
2018-06-11T23:44:58.819Z,20.70
2018-06-11T23:47:26.905Z,20.70
2018-06-11T23:49:54.869Z,20.70
2018-06-11T23:52:23.823Z,20.60
2018-06-11T23:54:51.755Z,20.40
2018-06-11T23:57:19.649Z,20.60
2018-06-11T23:59:47.726Z,20.50
